Time;durP1;ratioP1;P1;durP2;ratioP2;P2;SDS_P1;SDS_P2;PMS_P1;PMS_P2;Temp;Humidity;BMP_temperature;BMP_pressure;BME280_temperature;BME280_humidity;BME280_pressure;Samples;Min_cycle;Max_cycle;Signal;HPM_P1;HPM_P2
2023/09/23 03:33:23;;;;;;;1.42;1.05;;;9.90;99.90;;;;;;5005824;28;20629;-67
2023/09/23 03:35:50;;;;;;;1.00;0.80;;;9.90;99.90;;;;;;5010444;28;20582;-66
2023/09/23 03:38:17;;;;;;;1.25;0.73;;;9.90;99.90;;;;;;5012956;28;20679;-66
2023/09/23 03:40:50;;;;;;;1.00;0.80;;;9.80;99.90;;;;;;5009759;28;20707;-67
2023/09/23 03:43:22;;;;;;;1.00;0.90;;;9.80;99.90;;;;;;4992499;28;20212;-67
2023/09/23 03:45:50;;;;;;;1.25;0.90;;;9.90;99.90;;;;;;4990114;28;20219;-67
2023/09/23 03:48:17;;;;;;;1.00;0.88;;;9.80;99.90;;;;;;4994333;28;20265;-66
2023/09/23 03:50:49;;;;;;;1.00;0.90;;;9.80;99.90;;;;;;4994355;28;20231;-67
2023/09/23 03:53:16;;;;;;;0.80;0.80;;;9.80;99.90;;;;;;4993752;28;20224;-66
2023/09/23 03:55:43;;;;;;;1.30;1.00;;;9.80;99.90;;;;;;4987502;28;20203;-66
2023/09/23 03:58:11;;;;;;;1.98;1.10;;;9.80;99.90;;;;;;4993316;28;20243;-67
2023/09/23 04:00:38;;;;;;;1.85;0.95;;;9.70;99.90;;;;;;4988363;28;20736;-67
2023/09/23 04:03:05;;;;;;;1.60;1.02;;;9.70;99.90;;;;;;4993810;28;20211;-66
2023/09/23 04:05:32;;;;;;;1.00;0.80;;;9.70;99.90;;;;;;4987431;28;20227;-67
2023/09/23 04:08:00;;;;;;;2.00;0.80;;;9.70;99.90;;;;;;4993774;28;20203;-66
2023/09/23 04:10:27;;;;;;;1.10;0.90;;;9.70;99.90;;;;;;4993884;28;20294;-67
2023/09/23 04:12:55;;;;;;;1.85;0.95;;;9.70;99.90;;;;;;4987491;28;20215;-66
2023/09/23 04:15:22;;;;;;;1.10;0.80;;;9.70;99.90;;;;;;4992239;28;20273;-66
2023/09/23 04:17:49;;;;;;;1.55;1.10;;;9.70;99.90;;;;;;4993888;28;20203;-67
2023/09/23 04:20:15;;;;;;;1.15;0.93;;;9.70;99.90;;;;;;4993555;28;20277;-66
2023/09/23 04:22:46;;;;;;;1.20;1.10;;;9.70;99.90;;;;;;4993809;28;20233;-66
2023/09/23 04:25:14;;;;;;;1.83;1.30;;;9.70;99.90;;;;;;4993109;28;20237;-67
2023/09/23 04:27:41;;;;;;;1.05;0.90;;;9.70;99.90;;;;;;4993965;28;20239;-67
2023/09/23 04:30:11;;;;;;;1.30;1.02;;;9.70;99.90;;;;;;4993703;28;20615;-66
2023/09/23 04:32:39;;;;;;;0.90;0.80;;;9.70;99.90;;;;;;4987788;28;20207;-67
2023/09/23 04:35:07;;;;;;;1.10;1.00;;;9.80;99.90;;;;;;4986694;28;20204;-67
2023/09/23 04:37:37;;;;;;;1.10;1.00;;;9.70;99.90;;;;;;4993464;28;20561;-66
2023/09/23 04:40:06;;;;;;;1.85;1.00;;;9.70;99.90;;;;;;4993266;28;20215;-67
2023/09/23 04:42:34;;;;;;;1.30;1.20;;;9.70;99.90;;;;;;4993059;28;20715;-67
2023/09/23 04:45:00;;;;;;;1.95;1.10;;;9.70;99.90;;;;;;4992690;28;20238;-67
2023/09/23 04:47:27;;;;;;;1.00;0.85;;;9.60;99.90;;;;;;4993330;28;20308;-67
2023/09/23 04:49:55;;;;;;;1.10;0.93;;;9.70;99.90;;;;;;4993110;28;20213;-67
2023/09/23 04:52:21;;;;;;;1.88;1.50;;;9.70;99.90;;;;;;4985063;28;20231;-67
2023/09/23 04:54:53;;;;;;;1.10;1.00;;;9.60;99.90;;;;;;4992690;28;20668;-67
2023/09/23 04:57:19;;;;;;;1.50;1.10;;;9.70;99.90;;;;;;4992978;28;20210;-66
2023/09/23 04:59:48;;;;;;;1.10;1.00;;;9.60;99.90;;;;;;4993080;28;20207;-68
2023/09/23 05:02:16;;;;;;;1.20;1.00;;;9.60;99.90;;;;;;4992931;28;20742;-67
2023/09/23 05:04:44;;;;;;;2.20;1.23;;;9.60;99.90;;;;;;4992548;28;20223;-66
2023/09/23 05:07:12;;;;;;;1.00;0.90;;;9.60;99.90;;;;;;4993202;28;20211;-67
2023/09/23 05:09:39;;;;;;;1.77;1.15;;;9.60;99.90;;;;;;4993297;28;20211;-66
2023/09/23 05:12:08;;;;;;;1.00;0.90;;;9.60;99.90;;;;;;4992857;28;20230;-66
2023/09/23 05:14:34;;;;;;;1.67;1.20;;;9.60;99.90;;;;;;4986754;28;20266;-66
2023/09/23 05:17:04;;;;;;;1.30;1.05;;;9.60;99.90;;;;;;4992661;28;20222;-67
2023/09/23 05:19:31;;;;;;;1.10;1.00;;;9.60;99.90;;;;;;4992694;28;20711;-66
2023/09/23 05:21:58;;;;;;;1.80;1.55;;;9.60;99.90;;;;;;4992544;28;20318;-66
2023/09/23 05:24:26;;;;;;;1.25;1.00;;;9.60;99.90;;;;;;4992318;28;20210;-66
2023/09/23 05:26:54;;;;;;;1.00;0.90;;;9.60;99.90;;;;;;4992557;28;20788;-66
2023/09/23 05:29:21;;;;;;;1.20;1.00;;;9.60;99.90;;;;;;4989464;28;20463;-66
2023/09/23 05:31:48;;;;;;;1.80;1.23;;;9.70;99.90;;;;;;4992254;28;20226;-66
2023/09/23 05:34:16;;;;;;;1.17;0.90;;;9.70;99.90;;;;;;4991616;28;20209;-66
2023/09/23 05:36:43;;;;;;;0.90;0.80;;;9.70;99.90;;;;;;4992465;28;20230;-65
2023/09/23 05:39:13;;;;;;;0.90;0.80;;;9.70;99.90;;;;;;4992334;28;20217;-66
2023/09/23 05:41:39;;;;;;;3.05;0.98;;;9.70;99.90;;;;;;4992203;28;20250;-66
2023/09/23 05:44:07;;;;;;;0.90;0.80;;;9.80;99.90;;;;;;4991602;28;20207;-66
2023/09/23 05:46:35;;;;;;;0.88;0.80;;;9.90;99.90;;;;;;4989686;28;20306;-66
2023/09/23 05:49:02;;;;;;;2.03;1.10;;;9.90;99.90;;;;;;4984053;28;20242;-66
2023/09/23 05:51:32;;;;;;;1.20;1.10;;;9.90;99.90;;;;;;4987559;28;20231;-66
2023/09/23 05:54:00;;;;;;;1.23;1.10;;;9.90;99.90;;;;;;4983190;28;20588;-65
2023/09/23 05:56:26;;;;;;;1.33;1.05;;;9.90;99.90;;;;;;4986853;28;20234;-66
2023/09/23 05:58:53;;;;;;;0.90;0.80;;;9.90;99.90;;;;;;4984726;28;20208;-66
2023/09/23 06:01:20;;;;;;;1.20;1.00;;;9.90;99.90;;;;;;4982135;28;20235;-66
2023/09/23 06:03:48;;;;;;;1.65;0.98;;;9.90;99.90;;;;;;4982805;28;20199;-66
2023/09/23 06:06:14;;;;;;;1.10;0.90;;;9.90;99.90;;;;;;4982911;28;20227;-66
2023/09/23 06:08:42;;;;;;;1.30;1.10;;;9.90;99.90;;;;;;4988058;28;20233;-66
2023/09/23 06:11:11;;;;;;;1.20;1.00;;;9.90;99.90;;;;;;4983012;28;20735;-66
2023/09/23 06:13:37;;;;;;;1.38;1.05;;;9.90;99.90;;;;;;4987671;28;20278;-66
2023/09/23 06:16:05;;;;;;;1.65;0.90;;;9.90;99.90;;;;;;4983200;28;20211;-66
2023/09/23 06:18:33;;;;;;;1.42;1.08;;;9.90;99.90;;;;;;4982882;28;20211;-66
2023/09/23 06:21:00;;;;;;;3.38;1.27;;;9.90;99.90;;;;;;4982962;28;20233;-66
2023/09/23 06:23:27;;;;;;;1.10;1.00;;;9.90;99.90;;;;;;4987285;28;20273;-66
2023/09/23 06:25:56;;;;;;;1.75;1.42;;;9.90;99.90;;;;;;4988135;28;20244;-66
2023/09/23 06:28:23;;;;;;;1.60;1.13;;;9.90;99.90;;;;;;4984953;28;20310;-66
2023/09/23 06:30:50;;;;;;;1.30;1.02;;;9.90;99.90;;;;;;4984165;28;20230;-66
2023/09/23 06:33:17;;;;;;;1.83;1.25;;;10.00;99.90;;;;;;4986707;28;20603;-66
2023/09/23 06:35:44;;;;;;;2.05;1.33;;;10.00;99.90;;;;;;4987554;28;20677;-66
2023/09/23 06:38:11;;;;;;;1.55;1.45;;;10.10;99.90;;;;;;4987625;28;20221;-66
2023/09/23 06:40:38;;;;;;;1.67;1.20;;;10.10;99.90;;;;;;4987554;28;20407;-66
2023/09/23 06:43:07;;;;;;;1.67;1.17;;;10.20;99.90;;;;;;4987528;28;20222;-66
2023/09/23 06:45:33;;;;;;;1.55;1.17;;;10.20;99.90;;;;;;4983060;28;20285;-66
2023/09/23 06:48:00;;;;;;;1.10;1.00;;;10.20;99.90;;;;;;4987627;28;20219;-66
2023/09/23 06:50:27;;;;;;;1.20;1.10;;;10.30;99.90;;;;;;4987635;28;20215;-66
2023/09/23 06:52:54;;;;;;;1.42;1.20;;;10.30;99.90;;;;;;4983571;28;20230;-66
2023/09/23 06:55:21;;;;;;;1.40;1.30;;;10.40;99.90;;;;;;4983654;28;20221;-66
2023/09/23 06:57:48;;;;;;;1.23;1.13;;;10.50;99.90;;;;;;4983327;28;20220;-66
2023/09/23 07:00:16;;;;;;;3.40;1.13;;;10.60;99.90;;;;;;4987321;28;20220;-66
2023/09/23 07:02:43;;;;;;;1.70;1.35;;;10.60;99.90;;;;;;4987341;28;20221;-66
2023/09/23 07:05:10;;;;;;;1.20;0.90;;;10.70;99.90;;;;;;4987096;28;20231;-66
2023/09/23 07:07:37;;;;;;;1.17;1.00;;;10.80;99.90;;;;;;4987544;28;20212;-66
2023/09/23 07:10:04;;;;;;;1.17;1.08;;;10.90;99.90;;;;;;4983706;28;20208;-66
2023/09/23 07:12:31;;;;;;;1.58;1.13;;;11.00;99.90;;;;;;4990208;28;20350;-66
2023/09/23 07:14:58;;;;;;;1.25;0.93;;;11.10;99.90;;;;;;4993333;28;20211;-66
2023/09/23 07:17:27;;;;;;;1.20;1.10;;;11.10;99.90;;;;;;4994620;28;20211;-66
2023/09/23 07:19:54;;;;;;;1.20;1.00;;;11.20;99.90;;;;;;4987555;28;20259;-65
2023/09/23 07:22:20;;;;;;;1.98;1.10;;;11.40;99.90;;;;;;4994501;28;20715;-66
2023/09/23 07:24:47;;;;;;;1.33;1.20;;;11.50;99.90;;;;;;4994275;28;20209;-66
2023/09/23 07:27:14;;;;;;;1.20;1.10;;;11.60;99.90;;;;;;4986469;28;20234;-65
2023/09/23 07:29:41;;;;;;;1.23;1.13;;;11.80;99.90;;;;;;4994570;28;20203;-66
2023/09/23 07:32:07;;;;;;;1.52;1.30;;;11.90;99.90;;;;;;4994420;28;20227;-65
2023/09/23 07:34:35;;;;;;;1.10;1.00;;;12.00;99.90;;;;;;4993854;28;20204;-66
2023/09/23 07:37:02;;;;;;;1.50;1.10;;;12.10;99.90;;;;;;4994939;28;20227;-66
2023/09/23 07:39:29;;;;;;;1.20;0.90;;;12.20;99.90;;;;;;4994353;28;20225;-66
2023/09/23 07:41:56;;;;;;;3.15;1.67;;;12.30;99.90;;;;;;4994417;28;20226;-66
2023/09/23 07:44:23;;;;;;;1.10;0.98;;;12.50;99.90;;;;;;4990023;28;20217;-66
2023/09/23 07:46:49;;;;;;;1.27;0.90;;;12.70;99.90;;;;;;4994202;28;20229;-66
2023/09/23 07:49:16;;;;;;;1.00;0.90;;;12.80;99.90;;;;;;4994201;28;20229;-66
2023/09/23 07:51:44;;;;;;;0.90;0.80;;;12.90;99.90;;;;;;4994227;28;20227;-66
2023/09/23 07:54:11;;;;;;;1.00;0.90;;;13.20;99.90;;;;;;4989902;28;20209;-66
2023/09/23 07:56:38;;;;;;;1.50;0.95;;;13.40;99.90;;;;;;4993041;28;20501;-66
2023/09/23 07:59:06;;;;;;;1.08;0.93;;;13.60;99.90;;;;;;4988302;28;20218;-66
2023/09/23 08:01:32;;;;;;;2.15;1.15;;;13.70;99.90;;;;;;4990233;28;20254;-66
2023/09/23 08:03:59;;;;;;;1.30;1.00;;;13.90;99.90;;;;;;4993688;28;20580;-66
2023/09/23 08:06:26;;;;;;;1.57;1.20;;;14.00;99.90;;;;;;4990478;28;20856;-66
2023/09/23 08:08:54;;;;;;;1.20;1.03;;;14.10;99.90;;;;;;4994018;28;20462;-66
2023/09/23 08:11:20;;;;;;;2.58;0.93;;;14.00;99.90;;;;;;4993885;28;20486;-66
2023/09/23 08:13:47;;;;;;;1.10;0.87;;;14.10;99.90;;;;;;4993715;28;20317;-66
2023/09/23 08:16:14;;;;;;;1.10;0.80;;;14.10;99.90;;;;;;4993876;28;20454;-68
2023/09/23 08:18:41;;;;;;;1.20;1.00;;;14.20;99.90;;;;;;4993891;28;20469;-67
2023/09/23 08:21:07;;;;;;;1.10;1.00;;;14.30;99.90;;;;;;4990183;28;21022;-67
2023/09/23 08:23:34;;;;;;;1.77;1.17;;;14.50;99.90;;;;;;4992548;28;20462;-67
2023/09/23 08:26:04;;;;;;;1.23;1.00;;;14.70;99.90;;;;;;4993563;28;21010;-67
2023/09/23 08:28:31;;;;;;;0.80;0.70;;;14.90;99.90;;;;;;4993628;28;20474;-67
2023/09/23 08:30:58;;;;;;;1.77;1.10;;;15.00;99.90;;;;;;4993522;28;20486;-67
2023/09/23 08:33:25;;;;;;;1.20;1.10;;;15.10;99.90;;;;;;4992955;28;20466;-67
2023/09/23 08:35:51;;;;;;;1.10;0.90;;;15.20;99.90;;;;;;4990356;28;20458;-67
2023/09/23 08:38:18;;;;;;;1.17;0.90;;;15.30;99.90;;;;;;4993414;28;20473;-67
2023/09/23 08:40:45;;;;;;;1.20;1.07;;;15.40;99.90;;;;;;4990179;28;20478;-67
2023/09/23 08:43:14;;;;;;;1.57;0.90;;;15.60;99.90;;;;;;4992916;28;20462;-67
2023/09/23 08:45:44;;;;;;;1.00;0.87;;;15.80;99.90;;;;;;4993130;28;20486;-67
2023/09/23 08:48:12;;;;;;;1.47;1.00;;;15.90;99.90;;;;;;4993260;28;20546;-68
2023/09/23 08:50:42;;;;;;;1.60;1.13;;;15.90;99.90;;;;;;4990105;28;20486;-68
2023/09/23 08:53:09;;;;;;;2.20;1.47;;;16.00;99.90;;;;;;4992745;28;20843;-68
2023/09/23 08:55:36;;;;;;;1.10;0.90;;;16.10;99.90;;;;;;4993096;28;20466;-68
2023/09/23 08:58:04;;;;;;;0.80;0.70;;;16.20;99.90;;;;;;4993228;28;20479;-68
2023/09/23 09:00:32;;;;;;;1.87;1.10;;;16.40;99.90;;;;;;4990151;28;20839;-68
2023/09/23 09:02:59;;;;;;;4.43;0.90;;;16.50;99.90;;;;;;4990080;28;20463;-68
2023/09/23 09:05:38;;;;;;;1.47;0.93;;;16.60;99.90;;;;;;4989574;28;20458;-68
2023/09/23 09:08:06;;;;;;;1.07;0.97;;;16.60;99.90;;;;;;4992969;28;20470;-68
2023/09/23 09:10:33;;;;;;;1.13;0.90;;;16.70;99.90;;;;;;4989974;28;20482;-68
2023/09/23 09:13:02;;;;;;;1.50;1.03;;;16.80;99.90;;;;;;4992885;28;20464;-68
2023/09/23 09:15:30;;;;;;;1.00;0.90;;;17.00;99.90;;;;;;4992285;28;20475;-68
2023/09/23 09:17:59;;;;;;;1.17;1.03;;;17.10;99.90;;;;;;4989537;28;20525;-67
2023/09/23 09:20:26;;;;;;;1.60;1.10;;;17.30;99.90;;;;;;4990106;28;20475;-66
2023/09/23 09:22:53;;;;;;;1.37;1.13;;;17.50;99.90;;;;;;4992158;28;20497;-66
2023/09/23 09:25:20;;;;;;;1.17;1.07;;;17.60;99.90;;;;;;4991539;28;20472;-66
2023/09/23 09:27:47;;;;;;;1.33;0.90;;;17.60;99.90;;;;;;4989498;28;20494;-66
2023/09/23 09:30:14;;;;;;;3.87;1.00;;;17.60;99.90;;;;;;4989439;28;20473;-66
2023/09/23 09:32:42;;;;;;;2.70;1.10;;;17.70;99.90;;;;;;4990814;28;20480;-66
2023/09/23 09:35:13;;;;;;;1.90;1.13;;;17.80;99.90;;;;;;4988199;28;20993;-66
2023/09/23 09:37:43;;;;;;;3.00;1.00;;;17.90;99.90;;;;;;4989104;28;20472;-66
2023/09/23 09:40:15;;;;;;;1.40;0.97;;;18.00;99.90;;;;;;4988010;28;20962;-66
2023/09/23 09:42:47;;;;;;;1.13;0.87;;;18.00;99.90;;;;;;4989512;28;20529;-66
2023/09/23 09:45:18;;;;;;;1.97;1.33;;;18.10;99.90;;;;;;4991129;28;20473;-66
2023/09/23 09:47:47;;;;;;;3.60;1.20;;;18.20;99.90;;;;;;4989293;28;20492;-66
2023/09/23 09:50:15;;;;;;;3.00;1.13;;;18.30;99.90;;;;;;4991657;28;20875;-66
2023/09/23 09:52:44;;;;;;;1.20;0.90;;;18.40;99.90;;;;;;4991653;28;20469;-66
2023/09/23 09:55:14;;;;;;;1.77;1.40;;;18.50;99.90;;;;;;4988940;28;20834;-66
2023/09/23 09:57:42;;;;;;;1.23;1.00;;;18.60;99.90;;;;;;4987207;28;20743;-66
2023/09/23 10:00:20;;;;;;;2.13;1.37;;;18.60;99.90;;;;;;4991386;28;20966;-66
2023/09/23 10:02:47;;;;;;;1.40;1.20;;;18.70;99.90;;;;;;4991496;28;21044;-66
2023/09/23 10:05:18;;;;;;;2.40;1.60;;;18.80;99.90;;;;;;4990968;28;20898;-66
2023/09/23 10:07:55;;;;;;;1.63;1.00;;;18.90;99.90;;;;;;4989676;28;20846;-66
2023/09/23 10:10:31;;;;;;;1.70;1.30;;;19.00;99.90;;;;;;4989460;28;20469;-66
2023/09/23 10:12:59;;;;;;;1.37;1.00;;;19.00;99.90;;;;;;4991271;28;20835;-65
2023/09/23 10:15:28;;;;;;;2.50;1.20;;;18.80;99.90;;;;;;4991039;28;21274;-65
2023/09/23 10:17:57;;;;;;;1.77;1.03;;;18.60;99.90;;;;;;4991344;28;20464;-65
2023/09/23 10:20:34;;;;;;;1.50;1.07;;;18.40;99.90;;;;;;4983320;28;20556;-65
2023/09/23 10:23:05;;;;;;;1.60;1.20;;;18.50;99.90;;;;;;4991329;28;20555;-66
2023/09/23 10:25:38;;;;;;;1.67;1.00;;;18.60;99.90;;;;;;4991061;28;20492;-65
2023/09/23 10:28:06;;;;;;;1.43;1.13;;;18.50;99.90;;;;;;4989120;28;20496;-65
2023/09/23 10:30:35;;;;;;;2.60;1.17;;;18.50;99.90;;;;;;4989482;28;20915;-65
2023/09/23 10:33:03;;;;;;;2.20;1.33;;;18.50;99.90;;;;;;4990919;28;20481;-65
2023/09/23 10:35:29;;;;;;;1.93;1.10;;;18.40;99.90;;;;;;4990789;28;20473;-65
2023/09/23 10:37:57;;;;;;;1.57;0.90;;;18.20;99.90;;;;;;4991305;28;20462;-65
2023/09/23 10:40:24;;;;;;;2.23;1.17;;;18.00;99.90;;;;;;4989287;28;20868;-65
2023/09/23 10:42:51;;;;;;;1.60;1.30;;;18.00;99.90;;;;;;4991058;28;20832;-65
2023/09/23 10:45:20;;;;;;;3.20;1.47;;;17.90;99.90;;;;;;4990487;28;20469;-65
2023/09/23 10:47:47;;;;;;;1.67;1.10;;;17.80;99.90;;;;;;4994489;28;20489;-65
2023/09/23 10:50:14;;;;;;;4.80;1.70;;;17.70;99.90;;;;;;4993700;28;20464;-65
2023/09/23 10:52:41;;;;;;;2.40;1.10;;;17.70;99.90;;;;;;4995184;28;20462;-65
2023/09/23 10:55:10;;;;;;;1.33;1.00;;;17.60;99.90;;;;;;4994338;28;20504;-65
2023/09/23 10:57:37;;;;;;;2.07;1.43;;;17.50;99.90;;;;;;4993481;28;20470;-65
2023/09/23 11:00:13;;;;;;;2.07;1.43;;;17.70;99.90;;;;;;4994560;28;20997;-65
2023/09/23 11:02:44;;;;;;;1.60;1.10;;;18.10;99.90;;;;;;4995028;28;20492;-65
2023/09/23 11:05:12;;;;;;;2.03;1.00;;;18.50;99.90;;;;;;4991485;28;20465;-65
2023/09/23 11:07:42;;;;;;;1.30;1.03;;;18.80;99.90;;;;;;4993500;28;20485;-65
2023/09/23 11:10:13;;;;;;;3.33;1.40;;;19.10;99.90;;;;;;4994576;28;20561;-65
2023/09/23 11:12:43;;;;;;;0.80;0.70;;;19.40;99.90;;;;;;4994967;28;20466;-65
2023/09/23 11:15:12;;;;;;;1.30;1.20;;;19.50;99.90;;;;;;4993953;28;20539;-65
2023/09/23 11:17:41;;;;;;;2.17;1.10;;;19.30;99.90;;;;;;4994804;28;20549;-65
2023/09/23 11:20:10;;;;;;;3.37;1.37;;;19.00;99.90;;;;;;4994460;28;20862;-65
2023/09/23 11:22:38;;;;;;;2.00;1.10;;;18.70;99.90;;;;;;4994415;28;20571;-66
2023/09/23 11:25:10;;;;;;;1.23;1.00;;;18.40;99.90;;;;;;4992957;28;20942;-65
2023/09/23 11:27:38;;;;;;;1.83;0.97;;;18.20;99.90;;;;;;4992366;28;20492;-66
2023/09/23 11:30:05;;;;;;;1.20;1.00;;;17.90;99.90;;;;;;4994001;28;20475;-66
2023/09/23 11:32:33;;;;;;;2.50;1.60;;;17.70;99.90;;;;;;4994181;28;20562;-66
2023/09/23 11:35:00;;;;;;;2.30;1.20;;;17.70;99.90;;;;;;4994054;28;20477;-66
2023/09/23 11:37:27;;;;;;;1.00;0.90;;;18.00;99.90;;;;;;4994714;28;20575;-66
2023/09/23 11:39:54;;;;;;;1.53;1.03;;;18.50;99.90;;;;;;4993514;28;20470;-66
2023/09/23 11:42:21;;;;;;;1.40;1.00;;;19.00;99.90;;;;;;4994199;28;20572;-66
2023/09/23 11:44:49;;;;;;;1.20;0.83;;;19.50;99.90;;;;;;4993304;28;20462;-66
2023/09/23 11:47:17;;;;;;;1.80;1.00;;;19.80;99.90;;;;;;4993788;28;20494;-66
2023/09/23 11:49:44;;;;;;;1.10;0.87;;;19.80;99.90;;;;;;4994529;28;20524;-66
2023/09/23 11:52:13;;;;;;;1.17;1.00;;;19.80;99.90;;;;;;4993996;28;20522;-66
2023/09/23 11:54:40;;;;;;;1.37;1.10;;;20.00;99.90;;;;;;4993944;28;20462;-66
2023/09/23 11:57:08;;;;;;;1.00;0.70;;;20.20;99.90;;;;;;4993757;28;20468;-66
2023/09/23 11:59:34;;;;;;;2.33;1.27;;;20.20;99.90;;;;;;4993516;28;20466;-66
2023/09/23 12:02:03;;;;;;;1.97;1.10;;;19.90;99.90;;;;;;4992787;28;21018;-66
2023/09/23 12:04:30;;;;;;;1.23;1.00;;;19.60;99.90;;;;;;4994083;28;20471;-66
2023/09/23 12:06:57;;;;;;;3.00;1.30;;;19.20;99.90;;;;;;4993965;28;20526;-65
2023/09/23 12:09:24;;;;;;;1.83;0.90;;;18.90;99.90;;;;;;4993963;28;20466;-65
2023/09/23 12:11:51;;;;;;;1.20;0.90;;;18.70;99.90;;;;;;4994118;28;21031;-66
2023/09/23 12:14:19;;;;;;;1.77;0.80;;;18.70;99.90;;;;;;4993364;28;20473;-66
2023/09/23 12:16:46;;;;;;;2.37;1.20;;;18.90;99.90;;;;;;4993989;28;20466;-65
2023/09/23 12:19:14;;;;;;;1.00;0.90;;;19.40;99.90;;;;;;4993510;28;20500;-66
2023/09/23 12:21:41;;;;;;;1.50;1.00;;;19.80;99.90;;;;;;4993709;28;20482;-66
2023/09/23 12:24:08;;;;;;;1.10;0.90;;;20.10;99.90;;;;;;4992800;28;20821;-65
2023/09/23 12:26:35;;;;;;;1.20;1.10;;;20.40;99.90;;;;;;4993156;28;20841;-66
2023/09/23 12:29:02;;;;;;;1.20;1.00;;;20.40;99.90;;;;;;4993026;28;20474;-66
2023/09/23 12:31:28;;;;;;;2.40;1.33;;;20.20;99.90;;;;;;4992844;28;20868;-66
2023/09/23 12:33:55;;;;;;;1.27;1.00;;;19.80;99.90;;;;;;4993077;28;21038;-66
2023/09/23 12:36:24;;;;;;;1.53;1.10;;;19.40;99.90;;;;;;4985717;28;20464;-66
2023/09/23 12:38:54;;;;;;;1.43;0.90;;;19.20;99.90;;;;;;4993629;28;20455;-68
2023/09/23 12:41:21;;;;;;;2.60;1.10;;;19.00;99.90;;;;;;4993292;28;20521;-66
2023/09/23 12:43:48;;;;;;;1.80;1.10;;;18.80;99.90;;;;;;4993050;28;20468;-66
2023/09/23 12:46:14;;;;;;;1.87;0.90;;;18.60;99.90;;;;;;4993025;28;20484;-65
2023/09/23 12:48:41;;;;;;;1.30;1.10;;;18.30;99.90;;;;;;4993356;28;20510;-66
2023/09/23 12:51:09;;;;;;;1.43;1.00;;;18.20;99.90;;;;;;4984887;28;20485;-65
2023/09/23 12:53:37;;;;;;;1.07;0.80;;;18.00;99.90;;;;;;4993011;28;20808;-68
2023/09/23 12:56:04;;;;;;;0.97;0.87;;;17.90;99.90;;;;;;4992223;28;20466;-68
2023/09/23 12:58:30;;;;;;;1.27;0.90;;;17.70;99.90;;;;;;4986374;28;20901;-68
2023/09/23 13:00:57;;;;;;;3.27;1.40;;;17.60;99.90;;;;;;4993172;28;20498;-68
2023/09/23 13:03:24;;;;;;;1.37;1.10;;;17.80;99.90;;;;;;4981287;28;20464;-68
2023/09/23 13:05:51;;;;;;;3.00;0.93;;;17.80;99.90;;;;;;4989103;28;20517;-66
2023/09/23 13:08:19;;;;;;;1.80;1.00;;;17.80;99.90;;;;;;4992537;28;20485;-66
2023/09/23 13:10:47;;;;;;;1.13;1.00;;;17.70;99.90;;;;;;4992854;28;20492;-66
2023/09/23 13:13:16;;;;;;;1.00;0.90;;;17.60;99.90;;;;;;4984340;28;20473;-66
2023/09/23 13:15:42;;;;;;;1.83;1.00;;;17.70;99.90;;;;;;4985101;28;20543;-66
2023/09/23 13:18:09;;;;;;;0.80;0.70;;;18.00;99.90;;;;;;4991339;28;20462;-66
2023/09/23 13:20:36;;;;;;;1.00;0.80;;;18.20;99.90;;;;;;4979071;28;20618;-66
2023/09/23 13:23:04;;;;;;;1.00;0.83;;;18.30;99.90;;;;;;4984885;28;20470;-66
2023/09/23 13:25:31;;;;;;;0.90;0.70;;;18.40;99.90;;;;;;4992466;28;20573;-66
2023/09/23 13:27:59;;;;;;;1.20;0.90;;;18.50;99.90;;;;;;4992498;28;20500;-66
2023/09/23 13:30:26;;;;;;;2.80;1.10;;;18.60;99.90;;;;;;4985009;28;20556;-66
2023/09/23 13:32:52;;;;;;;1.10;0.80;;;18.70;99.90;;;;;;4992409;28;20463;-66
2023/09/23 13:35:19;;;;;;;1.53;0.90;;;18.80;99.90;;;;;;4991739;28;20572;-66
2023/09/23 13:37:46;;;;;;;1.73;1.10;;;19.00;99.90;;;;;;4992458;28;20457;-66
2023/09/23 13:40:13;;;;;;;1.20;1.00;;;19.00;99.90;;;;;;4992411;28;20849;-66
2023/09/23 13:42:39;;;;;;;1.50;1.00;;;18.90;99.90;;;;;;4992591;28;20465;-66
2023/09/23 13:45:09;;;;;;;1.70;1.13;;;18.70;99.90;;;;;;4991683;28;20466;-66
2023/09/23 13:47:37;;;;;;;1.20;1.03;;;18.50;99.90;;;;;;4992084;28;20495;-66
2023/09/23 13:50:04;;;;;;;3.10;1.00;;;18.50;99.90;;;;;;4992044;28;20888;-66
2023/09/23 13:52:31;;;;;;;1.23;0.97;;;18.70;99.90;;;;;;4992001;28;20485;-66
2023/09/23 13:54:58;;;;;;;1.20;1.00;;;18.90;99.90;;;;;;4991854;28;20847;-66
2023/09/23 13:57:24;;;;;;;1.33;1.03;;;19.10;99.90;;;;;;4991756;28;20520;-66
2023/09/23 13:59:51;;;;;;;1.23;0.93;;;19.30;99.90;;;;;;4985708;28;20852;-66
2023/09/23 14:02:19;;;;;;;1.37;0.80;;;19.50;99.90;;;;;;4991241;28;20483;-66
2023/09/23 14:04:46;;;;;;;1.23;0.97;;;19.60;99.90;;;;;;4991713;28;20467;-66
2023/09/23 14:07:13;;;;;;;2.70;1.30;;;19.80;99.90;;;;;;4991539;28;20462;-66
2023/09/23 14:09:39;;;;;;;2.40;1.40;;;19.90;99.90;;;;;;4992031;28;20473;-66
2023/09/23 14:12:07;;;;;;;1.57;1.10;;;20.00;99.90;;;;;;4991551;28;20509;-66
2023/09/23 14:14:34;;;;;;;1.60;0.90;;;20.20;99.90;;;;;;4991270;28;20524;-66
2023/09/23 14:17:01;;;;;;;1.13;0.93;;;20.30;99.90;;;;;;4992023;28;20467;-66
2023/09/23 14:19:29;;;;;;;1.30;1.00;;;20.30;99.90;;;;;;4991442;28;20464;-66
2023/09/23 14:21:56;;;;;;;1.10;1.00;;;20.40;99.90;;;;;;4991359;28;20509;-66
2023/09/23 14:24:22;;;;;;;1.30;0.97;;;20.40;99.90;;;;;;4987629;28;21031;-66
2023/09/23 14:26:49;;;;;;;2.00;1.00;;;20.20;99.90;;;;;;4987521;28;20458;-67
2023/09/23 14:29:16;;;;;;;1.20;1.03;;;19.90;99.90;;;;;;4984146;28;20494;-66
2023/09/23 14:31:43;;;;;;;1.20;0.90;;;19.70;99.90;;;;;;4991416;28;21019;-66
2023/09/23 14:34:10;;;;;;;1.10;0.80;;;19.70;99.90;;;;;;4977300;28;20515;-66
2023/09/23 14:36:38;;;;;;;1.20;0.93;;;19.60;99.90;;;;;;4991650;28;20470;-66
2023/09/23 14:39:05;;;;;;;1.30;0.83;;;19.40;99.90;;;;;;4991518;28;20828;-66
2023/09/23 14:41:33;;;;;;;3.27;1.13;;;19.10;99.90;;;;;;4982025;28;20876;-66
2023/09/23 14:44:00;;;;;;;1.20;0.93;;;18.80;99.90;;;;;;4981897;28;20467;-66
2023/09/23 14:46:27;;;;;;;1.43;1.00;;;18.70;99.90;;;;;;4984731;28;20463;-64
2023/09/23 14:48:54;;;;;;;1.30;1.00;;;18.40;99.90;;;;;;4991654;28;20479;-65
2023/09/23 14:51:21;;;;;;;1.83;0.90;;;18.20;99.90;;;;;;4978050;28;20874;-65
2023/09/23 14:53:50;;;;;;;2.30;1.50;;;18.00;99.90;;;;;;4991280;28;20469;-65
2023/09/23 14:56:16;;;;;;;1.57;1.33;;;17.90;99.90;;;;;;4978197;28;20480;-65
2023/09/23 14:58:43;;;;;;;3.93;1.53;;;17.70;99.90;;;;;;4991489;28;20461;-65
2023/09/23 15:01:10;;;;;;;4.73;1.63;;;17.60;99.90;;;;;;4990563;28;20513;-64
2023/09/23 15:03:37;;;;;;;4.63;2.30;;;17.50;99.90;;;;;;4984960;28;20465;-66
2023/09/23 15:06:04;;;;;;;3.67;2.10;;;17.40;99.90;;;;;;4985133;28;20469;-65
2023/09/23 15:08:31;;;;;;;1.83;1.40;;;17.30;99.90;;;;;;4984657;28;21035;-65
2023/09/23 15:10:59;;;;;;;2.53;1.50;;;17.20;99.90;;;;;;4991111;28;20489;-65
2023/09/23 15:13:25;;;;;;;1.57;1.23;;;17.20;99.90;;;;;;4990226;28;20469;-66
2023/09/23 15:15:52;;;;;;;2.17;1.20;;;17.30;99.90;;;;;;4985158;28;20491;-66
2023/09/23 15:18:19;;;;;;;1.00;0.90;;;17.60;99.90;;;;;;4990967;28;20458;-65
2023/09/23 15:20:45;;;;;;;1.13;1.03;;;17.80;99.90;;;;;;4991243;28;20495;-66
2023/09/23 15:23:12;;;;;;;1.43;1.10;;;17.90;99.90;;;;;;4990312;28;20467;-66
2023/09/23 15:25:39;;;;;;;1.20;0.90;;;17.90;99.90;;;;;;4990938;28;20469;-65
2023/09/23 15:28:08;;;;;;;1.23;1.10;;;17.90;99.90;;;;;;4990962;28;20587;-66
2023/09/23 15:30:35;;;;;;;0.90;0.80;;;17.80;99.90;;;;;;4990824;28;21013;-66
2023/09/23 15:33:02;;;;;;;1.93;1.00;;;17.80;99.90;;;;;;4985781;28;20548;-66
2023/09/23 15:35:29;;;;;;;1.20;1.10;;;17.70;99.90;;;;;;4988158;28;20459;-66
2023/09/23 15:37:57;;;;;;;0.90;0.80;;;17.60;99.90;;;;;;4994687;28;21029;-65
2023/09/23 15:40:23;;;;;;;1.37;1.10;;;17.40;99.90;;;;;;4992453;28;20465;-66
2023/09/23 15:42:50;;;;;;;1.20;0.90;;;17.20;99.90;;;;;;4994758;28;20472;-65
2023/09/23 15:45:18;;;;;;;1.43;1.00;;;17.10;99.90;;;;;;4988097;28;20530;-65
2023/09/23 15:47:45;;;;;;;1.40;1.10;;;17.00;99.90;;;;;;4994518;28;20463;-66
2023/09/23 15:50:12;;;;;;;1.40;1.17;;;16.90;99.90;;;;;;4994730;28;20520;-66
2023/09/23 15:52:38;;;;;;;1.50;1.10;;;16.90;99.90;;;;;;4982875;28;20839;-65
2023/09/23 15:55:06;;;;;;;3.17;1.30;;;16.80;99.90;;;;;;4994007;28;20464;-65
2023/09/23 15:57:33;;;;;;;1.33;1.10;;;16.80;99.90;;;;;;4991701;28;20465;-66
2023/09/23 15:59:59;;;;;;;1.73;1.20;;;16.90;99.90;;;;;;4991413;28;20461;-65
2023/09/23 16:02:28;;;;;;;1.27;1.00;;;17.00;99.90;;;;;;4993938;28;20487;-65
2023/09/23 16:04:54;;;;;;;2.07;1.33;;;17.00;99.90;;;;;;4988568;28;20976;-66
2023/09/23 16:07:22;;;;;;;1.33;1.10;;;17.10;99.90;;;;;;4991852;28;20464;-65
2023/09/23 16:09:49;;;;;;;1.27;1.10;;;17.10;99.90;;;;;;4993608;28;20493;-66
2023/09/23 16:12:15;;;;;;;1.33;1.20;;;17.00;99.90;;;;;;4993349;28;20568;-66
2023/09/23 16:14:42;;;;;;;1.40;1.30;;;17.00;99.90;;;;;;4993305;28;20480;-66
2023/09/23 16:17:09;;;;;;;1.33;1.00;;;16.90;99.90;;;;;;4993811;28;20480;-66
2023/09/23 16:19:37;;;;;;;1.03;0.93;;;17.00;99.90;;;;;;4993257;28;20535;-66
2023/09/23 16:22:04;;;;;;;1.90;0.93;;;16.90;99.90;;;;;;4993568;28;21029;-66